Flight Track Log - Related Links

Times and Time Zones

All times are in EDT time to prevent confusion due to time zone crossing. See the SWA1044 flight status page for this flight to view local times or setup timezone preferences in your user account.

Time Position Orientation Groundspeed Altitude Reporting Facility
EDT Latitude Longitude Course Direction KTS MPH feet Rate Location/Type
Tue 04:45:26 PM 36.1072 -115.1525 283° West 168 193 3,600  Level Los Angeles Center
Tue 04:46:21 PM 36.1172 -115.2078 283° West 219 252 5,600 2,588 Climbing Los Angeles Center
Tue 04:47:08 PM 36.1086 -115.2686 260° West 235 270 8,000 2,917 Climbing Los Angeles Center
Tue 04:48:10 PM 36.0439 -115.3197 213° Southwest 284 327 10,900 2,855 Climbing Los Angeles Center
Tue 04:49:12 PM 35.9606 -115.3578 200° South 306 352 13,900 3,000 Climbing Los Angeles Center
Tue 04:50:14 PM 35.8656 -115.3672 185° South 349 402 17,100 2,468 Climbing Los Angeles Center
Tue 04:51:16 PM 35.7658 -115.3272 162° South 370 426 19,000 919 Climbing Los Angeles Center
Tue 04:52:18 PM 35.6575 -115.2919 165° South 393 452 19,000 629 Level Los Angeles Center
Tue 04:53:20 PM 35.5464 -115.2992 183° South 395 455 20,300 1,452 Climbing Los Angeles Center
Tue 04:54:22 PM 35.4169 -115.3186 187° South 391 450 22,000 823 Climbing Los Angeles Center
Tue 04:55:24 PM 35.3081 -115.3394 189° South 395 455 22,000  Level Los Angeles Center
Tue 04:56:26 PM 35.2003 -115.3619 190° South 391 450 22,000  Level Los Angeles Center
Tue 04:57:28 PM 35.1039 -115.3803 189° South 391 450 22,000  Level Los Angeles Center
Tue 04:58:30 PM 34.9967 -115.4000 189° South 389 448 22,000  Level Los Angeles Center
Tue 04:59:32 PM 34.8786 -115.4236 189° South 389 448 22,000  Level Los Angeles Center
Tue 05:00:33 PM 34.7711 -115.4431 188° South 389 448 22,000  Level Los Angeles Center
Tue 05:01:35 PM 34.6411 -115.4675 189° South 391 450 22,000  Level Los Angeles Center
Tue 05:02:37 PM 34.5336 -115.4889 189° South 391 450 22,000  Level Los Angeles Center
Tue 05:03:39 PM 34.4253 -115.5083 188° South 392 451 22,000  Level Los Angeles Center
Tue 05:04:41 PM 34.3142 -115.5319 190° South 393 452 22,000  Level Los Angeles Center
Tue 05:05:43 PM 34.2156 -115.5839 204° Southwest 388 447 22,000  Level Los Angeles Center
Tue 05:06:45 PM 34.1164 -115.6358 203° Southwest 387 445 22,000  Level Los Angeles Center
Tue 05:07:47 PM 34.0169 -115.6869 203° Southwest 389 448 22,000  Level Los Angeles Center
Tue 05:08:49 PM 33.8975 -115.7483 203° Southwest 389 448 22,000  Level Los Angeles Center
Tue 05:09:51 PM 33.7997 -115.7994 203° Southwest 384 442 22,000 -48 Level Los Angeles Center
Tue 05:10:53 PM 33.7000 -115.8494 203° Southwest 385 443 21,900  Descending Los Angeles Center
Tue 05:11:55 PM 33.6008 -115.8997 203° Southwest 387 445 22,000 48 Climbing Los Angeles Center
Tue 05:12:57 PM 33.5031 -115.9536 205° Southwest 387 445 22,000 -290 Level Los Angeles Center
Tue 05:13:59 PM 33.4225 -116.0358 220° Southwest 380 437 21,400 -1,355 Descending Los Angeles Center
Tue 05:15:01 PM 33.3258 -116.1303 219° Southwest 375 432 19,200 -1,935 Descending Los Angeles Center
Tue 05:16:03 PM 33.2497 -116.2047 219° Southwest 360 414 17,400 -1,694 Descending Los Angeles Center
Tue 05:17:05 PM 33.1750 -116.2789 220° Southwest 351 404 15,700 -1,597 Descending Los Angeles Center
Tue 05:18:07 PM 33.1014 -116.3497 219° Southwest 346 398 14,100 -1,645 Descending Los Angeles Center
Tue 05:19:09 PM 33.0236 -116.4256 219° Southwest 334 384 12,300 -1,016 Descending Los Angeles Center
Tue 05:20:11 PM 32.9450 -116.4783 209° Southwest 327 376 12,000 -145 Descending Los Angeles Center
Tue 05:21:13 PM 32.8597 -116.5281 206° Southwest 328 377 12,000 -537 Level Los Angeles Center
Tue 05:22:14 PM 32.8064 -116.6100 232° Southwest 320 368 10,900 -1,366 Descending Los Angeles Center
Tue 05:23:16 PM 32.7647 -116.6969 240° Southwest 308 354 9,200 -1,645 Descending Los Angeles Center
Tue 05:24:18 PM 32.7258 -116.7803 241° Southwest 295 339 7,500 -1,790 Descending Los Angeles Center
Tue 05:25:20 PM 32.6908 -116.8650 244° Southwest 288 331 5,500 -1,839 Descending Los Angeles Center
Tue 05:26:22 PM 32.6797 -116.9683 263° West 271 312 3,700 -1,452 Descending Los Angeles Center
Tue 05:27:24 PM 32.6975 -117.0408 286° West 234 269 2,500 -1,016 Descending Los Angeles Center
Tue 05:28:26 PM 32.7092 -117.0939 285° West 176 203 1,600 -823 Descending Los Angeles Center
Tue 05:29:28 PM 32.7206 -117.1356 288° West 141 162 800 -629 Descending Los Angeles Center
Tue 05:30:30 PM 32.7322 -117.1856 286° West 139 160 300 -484 Descending Los Angeles Center
Tue 05:32:00 PM 32.7333 -117.1833 281° West  Level FlightAware Approximate
Tue 05:39:00 PM 32.7336 -117.1897 281° West  Level Estimated

Login

Don't have an account? Register now (free) for customized features, flight alerts, and more!